sensor_id;sensor_type;location;lat;lon;timestamp;pressure;altitude;pressure_sealevel;temperature;humidity
69535;BME280;56754;51.568;5.048;2023-09-19T00:00:22;100745.91;;;20.02;68.24
69535;BME280;56754;51.568;5.048;2023-09-19T00:02:54;100752.88;;;19.99;68.21
69535;BME280;56754;51.568;5.048;2023-09-19T00:05:20;100755.97;;;19.98;67.49
69535;BME280;56754;51.568;5.048;2023-09-19T00:07:46;100764.47;;;19.96;67.54
69535;BME280;56754;51.568;5.048;2023-09-19T00:10:11;100762.56;;;19.97;68.68
69535;BME280;56754;51.568;5.048;2023-09-19T00:12:36;100770.28;;;19.95;66.49
69535;BME280;56754;51.568;5.048;2023-09-19T00:15:01;100767.16;;;19.93;67.36
69535;BME280;56754;51.568;5.048;2023-09-19T00:17:27;100771.03;;;19.92;67.79
69535;BME280;56754;51.568;5.048;2023-09-19T00:19:52;100779.53;;;19.90;67.50
69535;BME280;56754;51.568;5.048;2023-09-19T00:22:17;100781.09;;;19.91;68.97
69535;BME280;56754;51.568;5.048;2023-09-19T00:24:43;100786.53;;;19.91;67.63
69535;BME280;56754;51.568;5.048;2023-09-19T00:27:08;100774.84;;;19.87;66.12
69535;BME280;56754;51.568;5.048;2023-09-19T00:29:33;100784.91;;;19.87;66.87
69535;BME280;56754;51.568;5.048;2023-09-19T00:31:58;100781.81;;;19.85;67.50
69535;BME280;56754;51.568;5.048;2023-09-19T00:34:24;100788.00;;;19.85;68.02
69535;BME280;56754;51.568;5.048;2023-09-19T00:36:50;100794.97;;;19.83;67.61
69535;BME280;56754;51.568;5.048;2023-09-19T00:39:16;100792.59;;;19.81;66.76
69535;BME280;56754;51.568;5.048;2023-09-19T00:41:41;100794.53;;;19.81;68.24
69535;BME280;56754;51.568;5.048;2023-09-19T00:44:06;100803.47;;;19.81;66.74
69535;BME280;56754;51.568;5.048;2023-09-19T00:46:32;100799.56;;;19.78;68.41
69535;BME280;56754;51.568;5.048;2023-09-19T00:48:57;100809.63;;;19.78;66.73
69535;BME280;56754;51.568;5.048;2023-09-19T00:51:23;100812.31;;;19.74;66.09
69535;BME280;56754;51.568;5.048;2023-09-19T00:53:48;100820.81;;;19.73;67.85
69535;BME280;56754;51.568;5.048;2023-09-19T00:56:15;100816.13;;;19.70;66.28
69535;BME280;56754;51.568;5.048;2023-09-19T00:58:40;100827.34;;;19.68;67.97
69535;BME280;56754;51.568;5.048;2023-09-19T01:01:06;100832.78;;;19.68;67.43
69535;BME280;56754;51.568;5.048;2023-09-19T01:03:33;100832.00;;;19.68;67.43
69535;BME280;56754;51.568;5.048;2023-09-19T01:05:59;100833.94;;;19.67;66.83
69535;BME280;56754;51.568;5.048;2023-09-19T01:08:24;100830.41;;;19.67;68.00
69535;BME280;56754;51.568;5.048;2023-09-19T01:10:56;100842.44;;;19.66;68.51
69535;BME280;56754;51.568;5.048;2023-09-19T01:13:34;100836.22;;;19.65;68.62
69535;BME280;56754;51.568;5.048;2023-09-19T01:16:31;100842.38;;;19.62;68.43
69535;BME280;56754;51.568;5.048;2023-09-19T01:19:13;100831.09;;;19.60;68.25
69535;BME280;56754;51.568;5.048;2023-09-19T01:27:14;100841.88;;;19.53;67.02
69535;BME280;56754;51.568;5.048;2023-09-19T01:29:45;100843.00;;;19.52;67.07
69535;BME280;56754;51.568;5.048;2023-09-19T01:32:13;100849.59;;;19.51;69.00
69535;BME280;56754;51.568;5.048;2023-09-19T01:34:48;100848.44;;;19.52;67.37
69535;BME280;56754;51.568;5.048;2023-09-19T01:37:15;100852.31;;;19.51;68.53
69535;BME280;56754;51.568;5.048;2023-09-19T01:39:40;100846.44;;;19.49;66.70
69535;BME280;56754;51.568;5.048;2023-09-19T01:42:14;100846.44;;;19.49;67.53
69535;BME280;56754;51.568;5.048;2023-09-19T01:47:36;100847.63;;;19.48;67.07
69535;BME280;56754;51.568;5.048;2023-09-19T01:53:04;100855.72;;;19.44;67.80
69535;BME280;56754;51.568;5.048;2023-09-19T01:55:47;100843.72;;;19.45;69.12
69535;BME280;56754;51.568;5.048;2023-09-19T01:58:37;100842.94;;;19.45;66.39
69535;BME280;56754;51.568;5.048;2023-09-19T02:01:01;100837.09;;;19.43;66.46
69535;BME280;56754;51.568;5.048;2023-09-19T02:03:28;100839.81;;;19.43;69.02
69535;BME280;56754;51.568;5.048;2023-09-19T02:05:54;100838.59;;;19.40;64.99
69535;BME280;56754;51.568;5.048;2023-09-19T02:08:21;100841.28;;;19.37;66.94
69535;BME280;56754;51.568;5.048;2023-09-19T02:10:47;100846.31;;;19.35;68.56
69535;BME280;56754;51.568;5.048;2023-09-19T02:13:12;100846.31;;;19.35;68.24
69535;BME280;56754;51.568;5.048;2023-09-19T02:15:38;100849.78;;;19.35;69.37
69535;BME280;56754;51.568;5.048;2023-09-19T02:18:03;100846.31;;;19.35;69.25
69535;BME280;56754;51.568;5.048;2023-09-19T02:20:28;100853.28;;;19.36;68.80
69535;BME280;56754;51.568;5.048;2023-09-19T02:22:54;100859.47;;;19.36;68.89
69535;BME280;56754;51.568;5.048;2023-09-19T02:25:19;100861.41;;;19.36;68.38
69535;BME280;56754;51.568;5.048;2023-09-19T02:27:44;100851.72;;;19.35;67.59
69535;BME280;56754;51.568;5.048;2023-09-19T02:30:10;100850.91;;;19.34;67.95
69535;BME280;56754;51.568;5.048;2023-09-19T02:32:35;100853.25;;;19.32;65.98
69535;BME280;56754;51.568;5.048;2023-09-19T02:35:01;100848.16;;;19.30;66.21
69535;BME280;56754;51.568;5.048;2023-09-19T02:37:26;100853.16;;;19.28;67.56
69535;BME280;56754;51.568;5.048;2023-09-19T02:39:51;100848.56;;;19.29;67.97
69535;BME280;56754;51.568;5.048;2023-09-19T02:42:17;100851.63;;;19.27;68.08
69535;BME280;56754;51.568;5.048;2023-09-19T02:44:42;100853.97;;;19.29;68.52
69535;BME280;56754;51.568;5.048;2023-09-19T02:47:07;100859.75;;;19.27;68.30
69535;BME280;56754;51.568;5.048;2023-09-19T02:49:32;100854.72;;;19.26;67.00
69535;BME280;56754;51.568;5.048;2023-09-19T02:51:58;100862.84;;;19.26;66.93
69535;BME280;56754;51.568;5.048;2023-09-19T02:54:23;100860.06;;;19.22;66.83
69535;BME280;56754;51.568;5.048;2023-09-19T02:56:48;100852.31;;;19.21;66.80
69535;BME280;56754;51.568;5.048;2023-09-19T02:59:14;100852.66;;;19.19;68.14
69535;BME280;56754;51.568;5.048;2023-09-19T03:01:39;100853.47;;;19.20;67.66
69535;BME280;56754;51.568;5.048;2023-09-19T03:04:05;100855.38;;;19.19;67.58
69535;BME280;56754;51.568;5.048;2023-09-19T03:06:30;100856.91;;;19.17;65.97
69535;BME280;56754;51.568;5.048;2023-09-19T03:08:56;100864.25;;;19.16;66.44
69535;BME280;56754;51.568;5.048;2023-09-19T03:11:21;100863.84;;;19.14;65.99
69535;BME280;56754;51.568;5.048;2023-09-19T03:13:53;100854.13;;;19.13;67.50
69535;BME280;56754;51.568;5.048;2023-09-19T03:16:19;100864.19;;;19.13;66.20
69535;BME280;56754;51.568;5.048;2023-09-19T03:18:44;100865.69;;;19.10;66.72
69535;BME280;56754;51.568;5.048;2023-09-19T03:21:09;100873.81;;;19.10;66.10
69535;BME280;56754;51.568;5.048;2023-09-19T03:23:34;100866.44;;;19.07;65.77
69535;BME280;56754;51.568;5.048;2023-09-19T03:26:00;100872.63;;;19.07;65.97
69535;BME280;56754;51.568;5.048;2023-09-19T03:28:25;100863.72;;;19.07;67.38
69535;BME280;56754;51.568;5.048;2023-09-19T03:31:01;100862.94;;;19.06;67.47
69535;BME280;56754;51.568;5.048;2023-09-19T03:33:27;100869.16;;;19.07;66.68
69535;BME280;56754;51.568;5.048;2023-09-19T03:35:53;100861.00;;;19.07;67.90
69535;BME280;56754;51.568;5.048;2023-09-19T03:38:19;100862.94;;;19.06;66.89
69535;BME280;56754;51.568;5.048;2023-09-19T03:40:45;100863.72;;;19.07;66.65
69535;BME280;56754;51.568;5.048;2023-09-19T03:43:10;100863.72;;;19.07;66.76
69535;BME280;56754;51.568;5.048;2023-09-19T03:45:35;100856.75;;;19.06;66.62
69535;BME280;56754;51.568;5.048;2023-09-19T03:48:01;100860.63;;;19.05;67.10
69535;BME280;56754;51.568;5.048;2023-09-19T03:50:26;100858.25;;;19.03;66.41
69535;BME280;56754;51.568;5.048;2023-09-19T03:52:56;100859.41;;;19.02;66.89
69535;BME280;56754;51.568;5.048;2023-09-19T03:55:21;100852.81;;;19.00;66.00
69535;BME280;56754;51.568;5.048;2023-09-19T03:57:49;100857.03;;;18.97;66.72
69535;BME280;56754;51.568;5.048;2023-09-19T04:00:15;100853.53;;;18.97;66.52
69535;BME280;56754;51.568;5.048;2023-09-19T04:02:40;100849.25;;;18.96;65.36
69535;BME280;56754;51.568;5.048;2023-09-19T04:05:06;100848.84;;;18.94;65.60
69535;BME280;56754;51.568;5.048;2023-09-19T04:07:31;100857.31;;;18.92;67.34
69535;BME280;56754;51.568;5.048;2023-09-19T04:09:56;100856.19;;;18.93;66.48
69535;BME280;56754;51.568;5.048;2023-09-19T04:12:22;100859.69;;;18.94;66.65
69535;BME280;56754;51.568;5.048;2023-09-19T04:14:47;100860.81;;;18.93;67.91
69535;BME280;56754;51.568;5.048;2023-09-19T04:17:12;100868.94;;;18.93;65.26
69535;BME280;56754;51.568;5.048;2023-09-19T04:19:37;100872.38;;;18.90;65.80
69535;BME280;56754;51.568;5.048;2023-09-19T04:22:03;100874.69;;;18.88;65.70
69535;BME280;56754;51.568;5.048;2023-09-19T04:24:28;100876.22;;;18.89;66.79
69535;BME280;56754;51.568;5.048;2023-09-19T04:26:53;100885.91;;;18.90;66.81
69535;BME280;56754;51.568;5.048;2023-09-19T04:29:19;100893.63;;;18.88;66.10
69535;BME280;56754;51.568;5.048;2023-09-19T04:31:44;100897.47;;;18.86;65.70
69535;BME280;56754;51.568;5.048;2023-09-19T04:34:12;100900.56;;;18.85;65.96
69535;BME280;56754;51.568;5.048;2023-09-19T04:36:37;100906.75;;;18.85;67.35
69535;BME280;56754;51.568;5.048;2023-09-19T04:39:03;100912.94;;;18.86;65.64
69535;BME280;56754;51.568;5.048;2023-09-19T04:41:28;100914.44;;;18.83;65.12
69535;BME280;56754;51.568;5.048;2023-09-19T04:43:55;100917.53;;;18.82;66.05
69535;BME280;56754;51.568;5.048;2023-09-19T04:46:20;100913.25;;;18.81;65.74
69535;BME280;56754;51.568;5.048;2023-09-19T04:48:45;100920.59;;;18.80;65.90
69535;BME280;56754;51.568;5.048;2023-09-19T04:51:11;100920.59;;;18.80;66.11
69535;BME280;56754;51.568;5.048;2023-09-19T04:53:36;100921.78;;;18.83;67.55
69535;BME280;56754;51.568;5.048;2023-09-19T04:56:01;100925.28;;;18.83;67.10
69535;BME280;56754;51.568;5.048;2023-09-19T04:58:27;100928.38;;;18.82;66.71
69535;BME280;56754;51.568;5.048;2023-09-19T05:00:52;100920.59;;;18.80;66.68
69535;BME280;56754;51.568;5.048;2023-09-19T05:03:17;100921.03;;;18.82;67.40
69535;BME280;56754;51.568;5.048;2023-09-19T05:05:42;100917.09;;;18.80;66.61
69535;BME280;56754;51.568;5.048;2023-09-19T05:08:08;100917.47;;;18.78;66.36
69535;BME280;56754;51.568;5.048;2023-09-19T05:10:34;100924.03;;;18.77;65.98
69535;BME280;56754;51.568;5.048;2023-09-19T05:12:59;100921.31;;;18.77;67.44
69535;BME280;56754;51.568;5.048;2023-09-19T05:15:24;100921.75;;;18.79;66.31
69535;BME280;56754;51.568;5.048;2023-09-19T05:17:50;100925.59;;;18.78;68.01
69535;BME280;56754;51.568;5.048;2023-09-19T05:20:16;100917.47;;;18.78;67.42
69535;BME280;56754;51.568;5.048;2023-09-19T05:22:42;100928.31;;;18.78;65.75
69535;BME280;56754;51.568;5.048;2023-09-19T05:25:07;100926.72;;;18.77;66.86
69535;BME280;56754;51.568;5.048;2023-09-19T05:27:33;100925.19;;;18.76;65.82
69535;BME280;56754;51.568;5.048;2023-09-19T05:29:58;100930.16;;;18.74;66.40
69535;BME280;56754;51.568;5.048;2023-09-19T05:32:23;100927.47;;;18.74;67.77
69535;BME280;56754;51.568;5.048;2023-09-19T05:34:48;100931.31;;;18.73;67.34
69535;BME280;56754;51.568;5.048;2023-09-19T05:37:14;100939.50;;;18.77;67.95
69535;BME280;56754;51.568;5.048;2023-09-19T05:39:39;100932.94;;;18.78;67.54
69535;BME280;56754;51.568;5.048;2023-09-19T05:42:04;100925.22;;;18.80;68.88
69535;BME280;56754;51.568;5.048;2023-09-19T05:44:29;100922.16;;;18.81;67.84
69535;BME280;56754;51.568;5.048;2023-09-19T05:46:55;100926.88;;;18.84;68.03
69535;BME280;56754;51.568;5.048;2023-09-19T05:49:20;100931.47;;;18.84;67.53
69535;BME280;56754;51.568;5.048;2023-09-19T05:51:45;100929.91;;;18.83;67.45
69535;BME280;56754;51.568;5.048;2023-09-19T05:54:11;100931.41;;;18.80;65.81
69535;BME280;56754;51.568;5.048;2023-09-19T05:56:36;100936.84;;;18.80;66.69
69535;BME280;56754;51.568;5.048;2023-09-19T05:59:01;100927.16;;;18.79;67.25
69535;BME280;56754;51.568;5.048;2023-09-19T06:01:26;100926.38;;;18.79;66.94
69535;BME280;56754;51.568;5.048;2023-09-19T06:03:52;100928.31;;;18.78;66.45
69535;BME280;56754;51.568;5.048;2023-09-19T06:06:17;100928.31;;;18.78;66.19
69535;BME280;56754;51.568;5.048;2023-09-19T06:08:42;100934.84;;;18.77;67.09
69535;BME280;56754;51.568;5.048;2023-09-19T06:11:08;100936.44;;;18.78;67.02
69535;BME280;56754;51.568;5.048;2023-09-19T06:13:33;100941.47;;;18.80;66.35
69535;BME280;56754;51.568;5.048;2023-09-19T06:15:58;100927.16;;;18.79;68.11
69535;BME280;56754;51.568;5.048;2023-09-19T06:18:24;100936.06;;;18.80;66.90
69535;BME280;56754;51.568;5.048;2023-09-19T06:20:49;100934.13;;;18.80;67.12
69535;BME280;56754;51.568;5.048;2023-09-19T06:23:14;100943.03;;;18.81;66.63
69535;BME280;56754;51.568;5.048;2023-09-19T06:25:40;100955.03;;;18.80;66.50
69535;BME280;56754;51.568;5.048;2023-09-19T06:28:05;100952.31;;;18.80;66.23
69535;BME280;56754;51.568;5.048;2023-09-19T06:30:31;100957.78;;;18.83;67.50
69535;BME280;56754;51.568;5.048;2023-09-19T06:32:57;100956.66;;;18.84;66.83
69535;BME280;56754;51.568;5.048;2023-09-19T06:35:22;100962.47;;;18.86;67.14
69535;BME280;56754;51.568;5.048;2023-09-19T06:37:48;100959.03;;;18.90;67.63
69535;BME280;56754;51.568;5.048;2023-09-19T06:40:22;100967.63;;;18.95;67.88
69535;BME280;56754;51.568;5.048;2023-09-19T06:42:51;100968.06;;;18.97;67.56
69535;BME280;56754;51.568;5.048;2023-09-19T06:45:16;100978.97;;;19.01;68.09
69535;BME280;56754;51.568;5.048;2023-09-19T06:47:41;100965.84;;;19.03;67.50
69535;BME280;56754;51.568;5.048;2023-09-19T06:50:07;100969.75;;;19.05;67.28
69535;BME280;56754;51.568;5.048;2023-09-19T06:52:32;100972.88;;;19.07;67.04
69535;BME280;56754;51.568;5.048;2023-09-19T06:54:58;100969.38;;;19.07;65.57
69535;BME280;56754;51.568;5.048;2023-09-19T06:57:23;100958.97;;;19.09;66.25
69535;BME280;56754;51.568;5.048;2023-09-19T06:59:48;100955.22;;;19.17;65.95
69535;BME280;56754;51.568;5.048;2023-09-19T07:02:13;100970.41;;;19.25;65.79
69535;BME280;56754;51.568;5.048;2023-09-19T07:04:39;100974.00;;;19.29;64.99
69535;BME280;56754;51.568;5.048;2023-09-19T07:07:04;100966.31;;;19.35;64.87
69535;BME280;56754;51.568;5.048;2023-09-19T07:09:29;100976.06;;;19.40;64.76
69535;BME280;56754;51.568;5.048;2023-09-19T07:11:55;100976.91;;;19.44;64.86
69535;BME280;56754;51.568;5.048;2023-09-19T07:14:20;100978.88;;;19.47;65.18
69535;BME280;56754;51.568;5.048;2023-09-19T07:16:45;100975.06;;;19.51;66.17
69535;BME280;56754;51.568;5.048;2023-09-19T07:19:11;100968.56;;;19.56;65.56
69535;BME280;56754;51.568;5.048;2023-09-19T07:21:36;100966.25;;;19.58;65.63
69535;BME280;56754;51.568;5.048;2023-09-19T07:24:01;100968.25;;;19.61;65.65
69535;BME280;56754;51.568;5.048;2023-09-19T07:26:27;100964.81;;;19.64;65.80
69535;BME280;56754;51.568;5.048;2023-09-19T07:28:52;100967.59;;;19.68;66.07
69535;BME280;56754;51.568;5.048;2023-09-19T07:31:17;100971.50;;;19.70;65.68
69535;BME280;56754;51.568;5.048;2023-09-19T07:33:43;100976.19;;;19.73;65.21
69535;BME280;56754;51.568;5.048;2023-09-19T07:36:10;100974.66;;;19.76;65.52
69535;BME280;56754;51.568;5.048;2023-09-19T07:38:35;100969.63;;;19.78;65.36
69535;BME280;56754;51.568;5.048;2023-09-19T07:41:01;100980.53;;;19.82;64.84
69535;BME280;56754;51.568;5.048;2023-09-19T07:43:26;100972.81;;;19.84;64.69
69535;BME280;56754;51.568;5.048;2023-09-19T07:45:52;100969.75;;;19.85;64.88
69535;BME280;56754;51.568;5.048;2023-09-19T07:48:17;100975.56;;;19.87;64.67
69535;BME280;56754;51.568;5.048;2023-09-19T07:50:42;100975.19;;;19.89;64.74
69535;BME280;56754;51.568;5.048;2023-09-19T07:53:07;100966.69;;;19.90;64.53
69535;BME280;56754;51.568;5.048;2023-09-19T07:55:33;100978.72;;;19.93;64.16
69535;BME280;56754;51.568;5.048;2023-09-19T07:57:58;100970.63;;;19.96;63.96
69535;BME280;56754;51.568;5.048;2023-09-19T08:00:23;100980.78;;;19.99;63.96
69535;BME280;56754;51.568;5.048;2023-09-19T08:02:49;100977.31;;;20.03;63.48
69535;BME280;56754;51.568;5.048;2023-09-19T08:05:14;100982.78;;;20.06;64.70
69535;BME280;56754;51.568;5.048;2023-09-19T08:07:40;100988.59;;;20.08;64.86
69535;BME280;56754;51.568;5.048;2023-09-19T08:10:06;100980.88;;;20.10;65.36
69535;BME280;56754;51.568;5.048;2023-09-19T08:12:32;100985.94;;;20.12;64.51
69535;BME280;56754;51.568;5.048;2023-09-19T08:14:57;100986.72;;;20.12;64.55
69535;BME280;56754;51.568;5.048;2023-09-19T08:17:23;100986.72;;;20.12;64.94
69535;BME280;56754;51.568;5.048;2023-09-19T08:19:49;100974.72;;;20.13;64.95
69535;BME280;56754;51.568;5.048;2023-09-19T08:22:14;100984.38;;;20.11;65.02
69535;BME280;56754;51.568;5.048;2023-09-19T08:24:40;100983.16;;;20.08;64.50
69535;BME280;56754;51.568;5.048;2023-09-19T08:27:05;100980.84;;;20.07;64.58
69535;BME280;56754;51.568;5.048;2023-09-19T08:29:31;100976.63;;;20.09;63.59
69535;BME280;56754;51.568;5.048;2023-09-19T08:31:57;100977.84;;;20.15;63.09
69535;BME280;56754;51.568;5.048;2023-09-19T08:34:23;100978.28;;;20.21;63.60
69535;BME280;56754;51.568;5.048;2023-09-19T08:36:55;100974.06;;;20.23;63.78
69535;BME280;56754;51.568;5.048;2023-09-19T08:39:20;100966.66;;;20.20;63.45
69535;BME280;56754;51.568;5.048;2023-09-19T08:41:46;100975.13;;;20.15;63.03
69535;BME280;56754;51.568;5.048;2023-09-19T08:44:11;100967.69;;;20.09;63.66
69535;BME280;56754;51.568;5.048;2023-09-19T08:46:37;100968.78;;;20.04;63.15
69535;BME280;56754;51.568;5.048;2023-09-19T08:49:20;100964.09;;;20.01;63.63
69535;BME280;56754;51.568;5.048;2023-09-19T08:51:54;100973.41;;;20.00;63.17
69535;BME280;56754;51.568;5.048;2023-09-19T08:54:25;100974.19;;;20.00;62.75
69535;BME280;56754;51.568;5.048;2023-09-19T08:56:54;100978.09;;;20.03;62.53
69535;BME280;56754;51.568;5.048;2023-09-19T08:59:25;100982.00;;;20.06;61.80
69535;BME280;56754;51.568;5.048;2023-09-19T09:01:51;100991.31;;;20.08;63.26
69535;BME280;56754;51.568;5.048;2023-09-19T09:04:17;100982.03;;;20.09;63.72
69535;BME280;56754;51.568;5.048;2023-09-19T09:06:43;100983.59;;;20.10;64.52
69535;BME280;56754;51.568;5.048;2023-09-19T09:09:09;100984.38;;;20.11;64.74
69535;BME280;56754;51.568;5.048;2023-09-19T09:11:35;100986.31;;;20.10;63.97
69535;BME280;56754;51.568;5.048;2023-09-19T09:14:01;100983.25;;;20.12;64.01
69535;BME280;56754;51.568;5.048;2023-09-19T09:16:26;100971.22;;;20.13;63.58
69535;BME280;56754;51.568;5.048;2023-09-19T09:18:52;100966.56;;;20.13;63.74
69535;BME280;56754;51.568;5.048;2023-09-19T09:21:20;100964.28;;;20.15;63.34
69535;BME280;56754;51.568;5.048;2023-09-19T09:23:46;100962.75;;;20.18;63.07
69535;BME280;56754;51.568;5.048;2023-09-19T09:26:11;100960.81;;;20.18;62.63
69535;BME280;56754;51.568;5.048;2023-09-19T09:28:44;100961.25;;;20.20;62.65
69535;BME280;56754;51.568;5.048;2023-09-19T09:31:22;100953.50;;;20.22;62.82
69535;BME280;56754;51.568;5.048;2023-09-19T09:33:55;100945.00;;;20.24;62.42
69535;BME280;56754;51.568;5.048;2023-09-19T09:36:40;100959.34;;;20.25;62.67
69535;BME280;56754;51.568;5.048;2023-09-19T09:39:05;100965.19;;;20.27;62.30
69535;BME280;56754;51.568;5.048;2023-09-19T09:41:36;100951.59;;;20.27;62.43
69535;BME280;56754;51.568;5.048;2023-09-19T09:44:16;100952.00;;;20.29;62.32
69535;BME280;56754;51.568;5.048;2023-09-19T09:46:46;100950.09;;;20.29;62.28
69535;BME280;56754;51.568;5.048;2023-09-19T09:49:11;100964.06;;;20.31;62.27
69535;BME280;56754;51.568;5.048;2023-09-19T09:51:37;100950.47;;;20.31;62.13
69535;BME280;56754;51.568;5.048;2023-09-19T09:54:10;100955.16;;;20.34;61.79
69535;BME280;56754;51.568;5.048;2023-09-19T09:56:52;100959.44;;;20.35;61.84
69535;BME280;56754;51.568;5.048;2023-09-19T09:59:17;100952.88;;;20.36;61.75
69535;BME280;56754;51.568;5.048;2023-09-19T10:01:46;100953.28;;;20.38;61.96
69535;BME280;56754;51.568;5.048;2023-09-19T10:04:26;100969.19;;;20.40;61.99
69535;BME280;56754;51.568;5.048;2023-09-19T10:06:52;100957.97;;;20.41;62.14
69535;BME280;56754;51.568;5.048;2023-09-19T10:09:17;100961.88;;;20.44;61.74
69535;BME280;56754;51.568;5.048;2023-09-19T10:12:08;100970.41;;;20.46;61.87
69535;BME280;56754;51.568;5.048;2023-09-19T10:14:38;100962.69;;;20.48;61.72
69535;BME280;56754;51.568;5.048;2023-09-19T10:17:05;100964.22;;;20.49;61.46
69535;BME280;56754;51.568;5.048;2023-09-19T10:19:37;100954.13;;;20.50;61.51
69535;BME280;56754;51.568;5.048;2023-09-19T10:22:04;100958.06;;;20.52;61.57
69535;BME280;56754;51.568;5.048;2023-09-19T10:24:30;100955.34;;;20.52;61.58
69535;BME280;56754;51.568;5.048;2023-09-19T10:26:59;100955.00;;;20.54;61.47
69535;BME280;56754;51.568;5.048;2023-09-19T10:29:27;100951.13;;;20.55;61.43
69535;BME280;56754;51.568;5.048;2023-09-19T10:31:54;100949.59;;;20.57;61.48
69535;BME280;56754;51.568;5.048;2023-09-19T10:34:23;100935.66;;;20.59;61.03
69535;BME280;56754;51.568;5.048;2023-09-19T10:36:51;100940.69;;;20.60;60.74
69535;BME280;56754;51.568;5.048;2023-09-19T10:39:16;100941.13;;;20.62;60.95
69535;BME280;56754;51.568;5.048;2023-09-19T10:41:42;100937.66;;;20.65;60.90
69535;BME280;56754;51.568;5.048;2023-09-19T10:44:07;100933.00;;;20.66;60.91
69535;BME280;56754;51.568;5.048;2023-09-19T10:46:32;100929.53;;;20.69;61.06
69535;BME280;56754;51.568;5.048;2023-09-19T10:49:02;100944.28;;;20.72;60.89
69535;BME280;56754;51.568;5.048;2023-09-19T10:51:42;100936.94;;;20.72;60.45
69535;BME280;56754;51.568;5.048;2023-09-19T10:54:13;100920.63;;;20.72;60.75
69535;BME280;56754;51.568;5.048;2023-09-19T10:56:46;100908.59;;;20.73;60.69
69535;BME280;56754;51.568;5.048;2023-09-19T10:59:13;100909.41;;;20.74;60.66
69535;BME280;56754;51.568;5.048;2023-09-19T11:01:44;100936.56;;;20.74;60.35
69535;BME280;56754;51.568;5.048;2023-09-19T11:09:52;100909.41;;;20.74;60.31
69535;BME280;56754;51.568;5.048;2023-09-19T11:14:55;100903.97;;;20.74;60.25
69535;BME280;56754;51.568;5.048;2023-09-19T11:30:50;100868.66;;;20.74;59.07
69535;BME280;56754;51.568;5.048;2023-09-19T11:36:02;100869.44;;;20.74;58.83
69535;BME280;56754;51.568;5.048;2023-09-19T11:43:47;100874.88;;;20.74;58.11
69535;BME280;56754;51.568;5.048;2023-09-19T11:46:12;100858.94;;;20.73;59.36
69535;BME280;56754;51.568;5.048;2023-09-19T11:48:38;100862.84;;;20.75;58.80
69535;BME280;56754;51.568;5.048;2023-09-19T11:51:12;100866.72;;;20.78;59.43
69535;BME280;56754;51.568;5.048;2023-09-19T11:53:38;100866.34;;;20.79;59.47
69535;BME280;56754;51.568;5.048;2023-09-19T11:56:06;100862.09;;;20.82;59.64
69535;BME280;56754;51.568;5.048;2023-09-19T11:58:31;100861.34;;;20.85;58.88
69535;BME280;56754;51.568;5.048;2023-09-19T12:00:59;100860.56;;;20.84;58.17
69535;BME280;56754;51.568;5.048;2023-09-19T12:03:29;100867.16;;;20.83;58.35
69535;BME280;56754;51.568;5.048;2023-09-19T12:05:54;100864.44;;;20.83;58.33
69535;BME280;56754;51.568;5.048;2023-09-19T12:08:20;100871.81;;;20.83;58.13
69535;BME280;56754;51.568;5.048;2023-09-19T12:10:47;100877.25;;;20.83;58.62
69535;BME280;56754;51.568;5.048;2023-09-19T12:13:16;100883.81;;;20.82;57.87
69535;BME280;56754;51.568;5.048;2023-09-19T12:15:42;100893.91;;;20.81;58.64
69535;BME280;56754;51.568;5.048;2023-09-19T12:18:07;100886.16;;;20.80;58.49
69535;BME280;56754;51.568;5.048;2023-09-19T12:20:45;100865.97;;;20.81;58.73
69535;BME280;56754;51.568;5.048;2023-09-19T12:23:13;100869.47;;;20.81;58.46
69535;BME280;56754;51.568;5.048;2023-09-19T12:25:43;100879.97;;;20.83;59.29
69535;BME280;56754;51.568;5.048;2023-09-19T12:28:08;100876.50;;;20.86;58.64
69535;BME280;56754;51.568;5.048;2023-09-19T12:30:33;100864.47;;;20.87;59.07
69535;BME280;56754;51.568;5.048;2023-09-19T12:32:59;100868.38;;;20.89;59.46
69535;BME280;56754;51.568;5.048;2023-09-19T12:35:28;100860.22;;;20.93;59.06
69535;BME280;56754;51.568;5.048;2023-09-19T12:37:53;100851.72;;;20.95;58.29
69535;BME280;56754;51.568;5.048;2023-09-19T12:40:21;100847.84;;;20.96;59.10
69535;BME280;56754;51.568;5.048;2023-09-19T12:42:47;100854.81;;;20.97;59.24
69535;BME280;56754;51.568;5.048;2023-09-19T12:45:13;100862.59;;;20.98;58.91
69535;BME280;56754;51.568;5.048;2023-09-19T12:47:39;100851.34;;;21.00;58.73
69535;BME280;56754;51.568;5.048;2023-09-19T12:50:08;100859.50;;;21.00;59.66
69535;BME280;56754;51.568;5.048;2023-09-19T12:52:37;100864.94;;;21.00;59.79
69535;BME280;56754;51.568;5.048;2023-09-19T12:55:04;100851.34;;;21.00;58.58
69535;BME280;56754;51.568;5.048;2023-09-19T12:57:29;100869.22;;;21.01;58.87
69535;BME280;56754;51.568;5.048;2023-09-19T12:59:55;100876.97;;;20.99;59.01
69535;BME280;56754;51.568;5.048;2023-09-19T13:02:20;100875.03;;;20.99;58.61
69535;BME280;56754;51.568;5.048;2023-09-19T13:04:54;100862.59;;;20.98;58.85
69535;BME280;56754;51.568;5.048;2023-09-19T13:10:07;100871.53;;;20.99;59.07
69535;BME280;56754;51.568;5.048;2023-09-19T13:12:36;100866.50;;;20.97;59.27
69535;BME280;56754;51.568;5.048;2023-09-19T13:15:11;100877.34;;;20.97;59.30
69535;BME280;56754;51.568;5.048;2023-09-19T13:17:43;100876.19;;;20.98;59.95
69535;BME280;56754;51.568;5.048;2023-09-19T13:20:26;100876.59;;;21.00;59.07
69535;BME280;56754;51.568;5.048;2023-09-19T13:22:52;100869.22;;;20.97;59.59
69535;BME280;56754;51.568;5.048;2023-09-19T13:25:18;100865.31;;;20.98;58.91
69535;BME280;56754;51.568;5.048;2023-09-19T13:27:46;100876.19;;;20.98;59.59
69535;BME280;56754;51.568;5.048;2023-09-19T13:30:12;100868.81;;;20.99;59.35
69535;BME280;56754;51.568;5.048;2023-09-19T13:32:38;100876.97;;;21.02;59.36